createdAt,value
2022-09-30T12:09:06.166Z,21.91
2022-09-30T12:10:06.134Z,22.30
2022-09-30T12:11:06.128Z,22.76
2022-09-30T12:12:06.097Z,22.92
2022-09-30T12:13:06.080Z,23.15
2022-09-30T12:14:06.073Z,23.15
2022-09-30T12:15:06.059Z,23.57
2022-09-30T12:16:06.096Z,23.12
2022-09-30T12:17:06.022Z,23.31
2022-09-30T12:18:06.008Z,23.36
2022-09-30T12:19:05.990Z,23.42
2022-09-30T12:20:05.977Z,23.35
2022-09-30T12:21:05.972Z,22.45
2022-09-30T12:22:05.941Z,22.72
2022-09-30T12:23:05.916Z,23.04
2022-09-30T12:24:05.917Z,23.20
2022-09-30T12:25:05.949Z,23.36
2022-09-30T12:26:05.897Z,23.46
2022-09-30T12:27:05.861Z,23.13
2022-09-30T12:28:05.884Z,23.15
2022-09-30T12:29:05.829Z,23.36
2022-09-30T12:30:05.814Z,23.72
2022-09-30T12:31:05.821Z,24.18
2022-09-30T12:32:05.814Z,24.34
2022-09-30T12:33:05.782Z,23.97
2022-09-30T12:34:05.758Z,24.60
2022-09-30T12:35:05.755Z,24.90
2022-09-30T12:36:05.752Z,24.28
2022-09-30T12:37:05.725Z,22.39
2022-09-30T12:38:05.701Z,21.90
2022-09-30T12:39:05.688Z,22.54
2022-09-30T12:40:05.747Z,23.12
2022-09-30T12:41:05.678Z,23.16
2022-09-30T12:42:05.643Z,22.82
2022-09-30T12:43:05.641Z,22.45
2022-09-30T12:44:05.628Z,22.61
2022-09-30T12:45:05.603Z,22.43
2022-09-30T12:46:05.688Z,21.79
2022-09-30T12:52:07.304Z,19.65
2022-09-30T12:57:00.570Z,18.85
2022-09-30T12:58:00.483Z,19.33
2022-09-30T12:59:00.475Z,18.99
2022-09-30T13:00:00.465Z,18.95
2022-09-30T13:01:00.543Z,19.47
2022-09-30T13:02:00.477Z,20.23
2022-09-30T13:03:00.442Z,20.55
2022-09-30T13:04:00.398Z,21.27
2022-09-30T13:05:00.391Z,21.21
2022-09-30T13:06:00.372Z,21.27
2022-09-30T13:07:00.381Z,21.07
2022-09-30T13:08:00.357Z,21.40
2022-09-30T13:09:01.166Z,21.50
2022-09-30T13:10:00.323Z,21.50
2022-09-30T13:11:36.222Z,21.13
2022-09-30T13:12:36.182Z,21.19
2022-09-30T13:13:36.175Z,20.74
2022-09-30T13:14:36.175Z,21.13
2022-09-30T13:15:36.153Z,21.06
2022-09-30T13:16:36.614Z,20.89
2022-09-30T13:17:36.148Z,21.25
2022-09-30T13:18:36.106Z,21.29
2022-09-30T13:19:36.101Z,20.98
2022-09-30T13:20:36.082Z,20.97
2022-09-30T13:21:36.062Z,20.73
2022-09-30T13:22:36.076Z,20.92
2022-09-30T13:49:59.782Z,18.69
2022-09-30T13:50:59.766Z,19.58
2022-09-30T13:51:59.747Z,20.31
2022-09-30T13:52:59.746Z,20.88
2022-09-30T13:53:59.717Z,21.62
2022-09-30T13:54:59.692Z,22.25
2022-09-30T13:55:59.676Z,22.46
2022-09-30T13:56:59.682Z,23.17
2022-09-30T13:57:59.647Z,22.83
2022-09-30T13:58:59.637Z,22.02
2022-09-30T13:59:59.639Z,22.30
2022-09-30T14:00:59.698Z,22.52
2022-09-30T14:01:59.617Z,22.24
2022-09-30T14:23:14.004Z,21.46
2022-09-30T14:24:13.974Z,22.20
2022-09-30T14:25:13.964Z,22.94
2022-09-30T14:26:13.945Z,22.98
2022-09-30T14:27:13.949Z,23.47
2022-09-30T14:28:14.121Z,23.72
2022-09-30T14:29:13.916Z,23.93
2022-09-30T14:30:13.901Z,23.66
2022-09-30T14:31:14.092Z,24.05
2022-09-30T14:32:13.907Z,24.31
2022-09-30T14:33:13.865Z,24.53
2022-09-30T14:34:13.858Z,24.62
2022-09-30T14:36:45.416Z,23.73
2022-09-30T14:37:45.392Z,23.87
2022-09-30T14:38:45.380Z,24.15
2022-09-30T14:39:45.373Z,24.32
2022-09-30T14:40:45.362Z,23.87
2022-09-30T14:41:45.401Z,22.62
2022-09-30T14:42:45.347Z,21.74
2022-09-30T14:43:45.332Z,20.73
2022-09-30T14:44:45.324Z,20.11
2022-09-30T14:45:45.351Z,19.99
